createdAt,value
2022-10-11T00:00:42.073Z,-67
2022-10-11T00:03:08.557Z,-67
2022-10-11T00:05:35.393Z,-68
2022-10-11T00:08:01.813Z,-67
2022-10-11T00:10:28.158Z,-68
2022-10-11T00:12:54.505Z,-67
2022-10-11T00:15:22.801Z,-67
2022-10-11T00:17:49.389Z,-67
2022-10-11T00:20:15.922Z,-67
2022-10-11T00:22:42.996Z,-67
2022-10-11T00:25:11.369Z,-67
2022-10-11T00:27:38.404Z,-67
2022-10-11T00:30:06.656Z,-67
2022-10-11T00:32:34.610Z,-67
2022-10-11T00:35:04.705Z,-67
2022-10-11T00:37:32.217Z,-67
2022-10-11T00:39:58.641Z,-67
2022-10-11T00:42:25.403Z,-67
2022-10-11T00:44:51.729Z,-68
2022-10-11T00:47:24.482Z,-67
2022-10-11T00:50:00.946Z,-67
2022-10-11T00:52:32.030Z,-67
2022-10-11T00:55:02.606Z,-67
2022-10-11T00:57:33.970Z,-67
2022-10-11T01:00:01.240Z,-67
2022-10-11T01:02:27.621Z,-67
2022-10-11T01:05:05.907Z,-67
2022-10-11T01:07:39.000Z,-67
2022-10-11T01:10:05.591Z,-68
2022-10-11T01:12:32.012Z,-67
2022-10-11T01:15:22.493Z,-67
2022-10-11T01:18:19.383Z,-67
2022-10-11T01:21:25.956Z,-67
2022-10-11T01:24:10.448Z,-67
2022-10-11T01:26:49.048Z,-67
2022-10-11T01:29:39.234Z,-67
2022-10-11T01:32:17.480Z,-67
2022-10-11T01:35:05.548Z,-67
2022-10-11T01:37:37.077Z,-67
2022-10-11T01:40:11.719Z,-67
2022-10-11T01:42:40.130Z,-67
2022-10-11T01:45:13.899Z,-67
2022-10-11T01:47:42.341Z,-67
2022-10-11T01:50:33.006Z,-67
2022-10-11T01:53:19.905Z,-67
2022-10-11T01:56:04.975Z,-67
2022-10-11T01:58:49.973Z,-67
2022-10-11T02:01:34.957Z,-67
2022-10-11T02:04:11.022Z,-67
2022-10-11T02:06:51.485Z,-67
2022-10-11T02:09:28.746Z,-67
2022-10-11T02:11:59.037Z,-67
2022-10-11T02:14:31.774Z,-67
2022-10-11T02:17:04.377Z,-67
2022-10-11T02:19:38.438Z,-67
2022-10-11T02:22:10.245Z,-67
2022-10-11T02:24:41.725Z,-67
2022-10-11T02:27:10.411Z,-67
2022-10-11T02:29:41.382Z,-67
2022-10-11T02:32:10.188Z,-67
2022-10-11T02:34:52.869Z,-67
2022-10-11T02:37:55.811Z,-67
2022-10-11T02:40:32.863Z,-67
2022-10-11T02:43:13.899Z,-67
2022-10-11T02:45:44.579Z,-67
2022-10-11T02:48:12.453Z,-67
2022-10-11T02:50:39.670Z,-67
2022-10-11T02:53:06.492Z,-67
2022-10-11T02:55:33.014Z,-67
2022-10-11T02:57:59.405Z,-67
2022-10-11T03:00:26.084Z,-67
2022-10-11T03:02:52.397Z,-67
2022-10-11T03:05:18.747Z,-67
2022-10-11T03:07:45.133Z,-67
2022-10-11T03:10:11.980Z,-67
2022-10-11T03:12:38.366Z,-67
2022-10-11T03:15:05.202Z,-66
2022-10-11T03:17:36.534Z,-67
2022-10-11T03:20:04.909Z,-67
2022-10-11T03:22:31.230Z,-67
2022-10-11T03:25:02.545Z,-67
2022-10-11T03:27:30.237Z,-67
2022-10-11T03:29:57.006Z,-67
2022-10-11T03:32:23.302Z,-67
2022-10-11T03:34:49.625Z,-67
2022-10-11T03:37:16.005Z,-67
2022-10-11T03:39:42.629Z,-67
2022-10-11T03:42:08.929Z,-67
2022-10-11T03:44:35.201Z,-67
2022-10-11T03:47:01.610Z,-67
2022-10-11T03:49:27.908Z,-67
2022-10-11T03:51:54.191Z,-66
2022-10-11T03:54:20.553Z,-67
2022-10-11T03:56:46.906Z,-67
2022-10-11T03:59:13.233Z,-67
2022-10-11T04:01:39.683Z,-67
2022-10-11T04:04:06.031Z,-67
2022-10-11T04:06:32.829Z,-67
2022-10-11T04:08:59.689Z,-67
2022-10-11T04:11:26.021Z,-67
2022-10-11T04:13:52.353Z,-67
2022-10-11T04:16:18.658Z,-67
2022-10-11T04:18:44.928Z,-69
2022-10-11T04:21:11.280Z,-68
2022-10-11T04:23:37.573Z,-70
2022-10-11T04:26:07.439Z,-67
2022-10-11T04:28:34.872Z,-67
2022-10-11T04:31:01.466Z,-67
2022-10-11T04:33:27.780Z,-67
2022-10-11T04:35:55.986Z,-67
2022-10-11T04:38:23.410Z,-67
2022-10-11T04:40:49.869Z,-67
2022-10-11T04:43:17.417Z,-67
2022-10-11T04:45:43.905Z,-67
2022-10-11T04:48:10.266Z,-70
2022-10-11T04:50:37.083Z,-68
2022-10-11T04:53:03.434Z,-70
2022-10-11T04:55:29.725Z,-69
2022-10-11T04:57:56.026Z,-67
2022-10-11T05:00:22.533Z,-67
2022-10-11T05:02:48.830Z,-67
2022-10-11T05:05:17.460Z,-67
2022-10-11T05:07:44.054Z,-67
2022-10-11T05:10:10.740Z,-67
2022-10-11T05:12:37.049Z,-67
2022-10-11T05:15:03.774Z,-67
2022-10-11T05:17:30.162Z,-67
2022-10-11T05:19:56.536Z,-67
2022-10-11T05:22:22.838Z,-67
2022-10-11T05:24:49.146Z,-69
2022-10-11T05:27:15.434Z,-69
2022-10-11T05:29:41.771Z,-67
2022-10-11T05:32:08.054Z,-68
2022-10-11T05:34:34.395Z,-68
2022-10-11T05:37:00.725Z,-70
2022-10-11T05:39:27.017Z,-68
2022-10-11T05:41:53.512Z,-70
2022-10-11T05:44:19.793Z,-68
2022-10-11T05:46:46.335Z,-70
2022-10-11T05:49:12.930Z,-69
2022-10-11T05:51:39.303Z,-69
2022-10-11T05:54:05.645Z,-71
2022-10-11T05:56:31.938Z,-68
2022-10-11T05:59:02.197Z,-69
2022-10-11T06:01:29.189Z,-69
2022-10-11T06:03:55.868Z,-70
2022-10-11T06:06:22.921Z,-70
2022-10-11T06:08:49.624Z,-68
2022-10-11T06:11:21.840Z,-69
2022-10-11T06:13:48.663Z,-68
2022-10-11T06:16:16.071Z,-68
2022-10-11T06:18:42.405Z,-70
2022-10-11T06:21:08.834Z,-68
2022-10-11T06:23:35.247Z,-68
2022-10-11T06:26:05.988Z,-70
2022-10-11T06:28:34.133Z,-69
2022-10-11T06:31:02.594Z,-70
2022-10-11T06:33:28.894Z,-71
2022-10-11T06:36:05.396Z,-70
2022-10-11T06:38:32.004Z,-70
2022-10-11T06:40:58.447Z,-69
2022-10-11T06:43:25.281Z,-70
2022-10-11T06:45:51.730Z,-71
2022-10-11T06:48:18.033Z,-70
2022-10-11T06:51:00.674Z,-70
2022-10-11T06:53:27.872Z,-71
2022-10-11T06:55:54.200Z,-67
2022-10-11T06:58:20.566Z,-70
2022-10-11T07:00:46.957Z,-70
2022-10-11T07:03:13.342Z,-67
2022-10-11T07:05:39.683Z,-71
2022-10-11T07:08:05.997Z,-71
2022-10-11T07:10:32.282Z,-70
2022-10-11T07:12:58.621Z,-67
2022-10-11T07:15:25.020Z,-70
2022-10-11T07:17:51.324Z,-70
2022-10-11T07:20:17.734Z,-67
2022-10-11T07:22:44.094Z,-70
2022-10-11T07:25:10.443Z,-71
2022-10-11T07:27:36.751Z,-71
2022-10-11T07:30:03.534Z,-71
2022-10-11T07:32:29.828Z,-70
2022-10-11T07:34:56.689Z,-69
2022-10-11T07:37:22.996Z,-71
2022-10-11T07:39:49.659Z,-71
2022-10-11T07:42:15.959Z,-70
2022-10-11T07:44:42.297Z,-70
2022-10-11T07:47:11.213Z,-67
2022-10-11T07:49:37.916Z,-68
2022-10-11T07:52:04.565Z,-68
2022-10-11T07:54:30.875Z,-69
2022-10-11T07:56:57.284Z,-68
2022-10-11T07:59:23.612Z,-71
2022-10-11T08:01:50.390Z,-71
2022-10-11T08:04:16.848Z,-70
2022-10-11T08:06:43.284Z,-70
2022-10-11T08:09:10.220Z,-70
2022-10-11T08:11:37.488Z,-69
2022-10-11T08:14:08.392Z,-67
2022-10-11T08:16:36.043Z,-67
2022-10-11T08:19:03.245Z,-67
2022-10-11T08:21:30.477Z,-66
2022-10-11T08:23:56.845Z,-67
2022-10-11T08:26:24.120Z,-68
2022-10-11T08:28:50.571Z,-68
2022-10-11T08:31:16.960Z,-67
2022-10-11T08:33:43.901Z,-67
2022-10-11T08:36:11.405Z,-69
2022-10-11T08:38:39.266Z,-70
2022-10-11T08:41:34.908Z,-67
2022-10-11T08:44:01.173Z,-67
2022-10-11T08:46:33.513Z,-67
2022-10-11T08:49:01.852Z,-67
2022-10-11T08:51:32.020Z,-67
2022-10-11T08:54:10.731Z,-67
2022-10-11T08:56:40.665Z,-67
2022-10-11T08:59:24.993Z,-67
2022-10-11T09:02:01.768Z,-67
2022-10-11T09:04:28.420Z,-67
2022-10-11T09:07:28.382Z,-67
2022-10-11T09:10:12.288Z,-67
2022-10-11T09:12:55.480Z,-67
2022-10-11T09:15:38.331Z,-68
2022-10-11T09:18:30.070Z,-69
2022-10-11T09:21:05.381Z,-67
2022-10-11T09:24:09.554Z,-67
2022-10-11T09:26:59.647Z,-68
2022-10-11T09:30:00.846Z,-65
2022-10-11T09:32:31.842Z,-69
2022-10-11T09:35:09.241Z,-65
2022-10-11T09:37:54.017Z,-65
2022-10-11T09:40:45.115Z,-71
2022-10-11T09:43:12.051Z,-69
2022-10-11T09:45:45.703Z,-67
2022-10-11T09:48:22.937Z,-67
2022-10-11T09:50:51.562Z,-67
2022-10-11T09:53:19.224Z,-67
2022-10-11T09:55:53.047Z,-68
2022-10-11T09:58:34.517Z,-68
2022-10-11T10:01:07.650Z,-69
2022-10-11T10:03:40.316Z,-68
2022-10-11T10:06:16.408Z,-69
2022-10-11T10:08:45.285Z,-68
2022-10-11T10:11:12.422Z,-68
2022-10-11T10:13:46.193Z,-68
2022-10-11T10:16:23.462Z,-68
2022-10-11T10:18:56.775Z,-67
2022-10-11T10:21:33.064Z,-68
2022-10-11T10:24:03.978Z,-70
2022-10-11T10:26:32.221Z,-70
2022-10-11T10:29:05.016Z,-68
2022-10-11T10:32:12.802Z,-69
2022-10-11T10:34:41.197Z,-67
2022-10-11T10:37:29.145Z,-67
2022-10-11T10:40:16.003Z,-70
2022-10-11T10:42:42.449Z,-68
2022-10-11T10:45:20.852Z,-68
2022-10-11T10:48:08.986Z,-68
2022-10-11T10:50:58.244Z,-68
2022-10-11T10:53:34.203Z,-68
2022-10-11T10:56:39.006Z,-68
2022-10-11T10:59:47.824Z,-68
2022-10-11T11:05:29.933Z,-68
2022-10-11T11:08:10.585Z,-71
2022-10-11T11:10:47.120Z,-71
2022-10-11T11:13:25.200Z,-71
2022-10-11T11:16:30.465Z,-71
2022-10-11T11:19:34.405Z,-72
2022-10-11T11:22:09.617Z,-72
2022-10-11T11:24:48.108Z,-73
2022-10-11T11:27:26.554Z,-73
2022-10-11T11:30:18.716Z,-72
2022-10-11T11:32:50.408Z,-73
2022-10-11T11:35:33.616Z,-72
2022-10-11T11:38:20.149Z,-72
2022-10-11T11:40:52.496Z,-69
2022-10-11T11:43:28.495Z,-71
2022-10-11T11:45:59.205Z,-69
2022-10-11T11:48:26.760Z,-70
2022-10-11T11:51:05.707Z,-69
2022-10-11T11:53:49.548Z,-70
2022-10-11T11:56:27.689Z,-70
2022-10-11T11:59:14.804Z,-70
2022-10-11T12:01:49.662Z,-71
2022-10-11T12:04:26.688Z,-70
2022-10-11T12:07:17.038Z,-71
2022-10-11T12:09:50.331Z,-70
2022-10-11T12:12:30.577Z,-72
2022-10-11T12:15:18.433Z,-70
2022-10-11T12:17:57.281Z,-71
2022-10-11T12:20:29.861Z,-71
2022-10-11T12:23:24.479Z,-71
2022-10-11T12:26:28.021Z,-69
2022-10-11T12:29:27.417Z,-72
2022-10-11T12:32:00.971Z,-70
2022-10-11T12:34:37.783Z,-70
2022-10-11T12:37:19.560Z,-70
2022-10-11T12:39:54.599Z,-70
2022-10-11T12:42:25.418Z,-70
2022-10-11T12:45:13.569Z,-69
2022-10-11T12:47:55.725Z,-72
2022-10-11T12:50:37.265Z,-73
2022-10-11T12:53:17.171Z,-72
2022-10-11T12:56:04.242Z,-73
2022-10-11T12:58:46.240Z,-73
2022-10-11T13:01:22.216Z,-72
2022-10-11T13:04:09.866Z,-70
2022-10-11T13:06:45.849Z,-72
2022-10-11T13:09:12.082Z,-72
2022-10-11T13:11:48.836Z,-74
2022-10-11T13:14:19.508Z,-71
2022-10-11T13:16:45.756Z,-72
2022-10-11T13:19:14.422Z,-72
2022-10-11T13:21:40.719Z,-71
2022-10-11T13:24:15.209Z,-71
2022-10-11T13:26:44.015Z,-72
2022-10-11T13:29:23.225Z,-74
2022-10-11T13:31:49.749Z,-74
2022-10-11T13:34:18.660Z,-74
2022-10-11T13:36:47.398Z,-74
2022-10-11T13:39:31.368Z,-70
2022-10-11T13:41:59.574Z,-72
2022-10-11T13:44:26.825Z,-71
2022-10-11T13:46:53.643Z,-72
2022-10-11T13:49:25.854Z,-73
2022-10-11T13:52:01.872Z,-73
2022-10-11T13:54:52.837Z,-73
2022-10-11T13:57:45.096Z,-72
2022-10-11T14:00:17.425Z,-73
2022-10-11T14:02:50.980Z,-72
2022-10-11T14:05:27.330Z,-74
2022-10-11T14:07:53.638Z,-73
2022-10-11T14:10:23.116Z,-72
2022-10-11T14:13:03.352Z,-72
2022-10-11T14:15:36.473Z,-72
2022-10-11T14:18:34.715Z,-73
2022-10-11T14:21:19.347Z,-72
2022-10-11T14:24:07.504Z,-72
2022-10-11T14:26:36.993Z,-72
2022-10-11T14:29:12.075Z,-73
2022-10-11T14:31:41.927Z,-71
2022-10-11T14:34:15.269Z,-72
2022-10-11T14:36:41.592Z,-69
2022-10-11T14:39:15.161Z,-70
2022-10-11T14:41:41.699Z,-69
2022-10-11T14:44:08.105Z,-70
2022-10-11T14:46:35.824Z,-70
2022-10-11T14:49:02.137Z,-69
2022-10-11T14:51:34.268Z,-69
2022-10-11T14:54:00.669Z,-69
2022-10-11T14:56:27.077Z,-69
2022-10-11T14:58:53.461Z,-68
2022-10-11T15:01:19.881Z,-69
2022-10-11T15:03:46.230Z,-69
2022-10-11T15:06:22.755Z,-70
2022-10-11T15:08:49.122Z,-68
2022-10-11T15:11:17.358Z,-68
2022-10-11T15:13:44.021Z,-68
2022-10-11T15:16:12.570Z,-68
2022-10-11T15:18:39.334Z,-67
2022-10-11T15:21:06.025Z,-68
2022-10-11T15:23:32.580Z,-67
2022-10-11T15:25:59.265Z,-67
2022-10-11T15:28:29.135Z,-68
2022-10-11T15:30:56.055Z,-68
2022-10-11T15:33:23.145Z,-67
2022-10-11T15:35:49.712Z,-67
2022-10-11T15:38:20.401Z,-67
2022-10-11T15:40:47.687Z,-69
2022-10-11T15:43:14.516Z,-69
2022-10-11T15:45:41.394Z,-69
2022-10-11T15:48:08.580Z,-68
2022-10-11T15:50:39.772Z,-68
2022-10-11T15:53:08.552Z,-68
2022-10-11T15:55:40.201Z,-68
2022-10-11T15:58:12.029Z,-68
2022-10-11T16:00:38.304Z,-68
2022-10-11T16:05:32.073Z,-68
2022-10-11T16:07:58.908Z,-68
2022-10-11T16:10:25.206Z,-68
2022-10-11T16:12:51.519Z,-68
2022-10-11T16:15:17.880Z,-68
2022-10-11T16:17:46.325Z,-68
2022-10-11T16:20:13.870Z,-68
2022-10-11T16:22:40.830Z,-68
2022-10-11T16:25:07.353Z,-68
2022-10-11T16:27:33.741Z,-68
2022-10-11T16:30:00.770Z,-68
2022-10-11T16:32:27.919Z,-67
2022-10-11T16:34:54.231Z,-68
2022-10-11T16:37:20.574Z,-68
2022-10-11T16:39:46.959Z,-68
2022-10-11T16:42:13.280Z,-69
2022-10-11T16:44:39.625Z,-69
2022-10-11T16:47:06.399Z,-69
2022-10-11T16:49:33.409Z,-70
2022-10-11T16:52:00.098Z,-70
2022-10-11T16:54:30.359Z,-68
2022-10-11T16:56:57.894Z,-69
2022-10-11T16:59:24.901Z,-69
2022-10-11T17:01:51.599Z,-69
2022-10-11T17:04:18.294Z,-68
2022-10-11T17:06:44.842Z,-68
2022-10-11T17:09:11.806Z,-68
2022-10-11T17:11:38.325Z,-67
2022-10-11T17:14:05.813Z,-67
2022-10-11T17:16:32.392Z,-67
2022-10-11T17:18:58.721Z,-67
2022-10-11T17:21:25.100Z,-68
2022-10-11T17:23:51.670Z,-67
2022-10-11T17:26:21.225Z,-67
2022-10-11T17:28:48.212Z,-68
2022-10-11T17:31:15.140Z,-67
2022-10-11T17:33:41.544Z,-67
2022-10-11T17:36:34.555Z,-68
2022-10-11T17:39:04.892Z,-70
2022-10-11T17:41:32.325Z,-67
2022-10-11T17:43:59.351Z,-67
2022-10-11T17:46:27.546Z,-68
2022-10-11T17:48:56.729Z,-70
2022-10-11T17:51:23.074Z,-70
2022-10-11T17:53:52.825Z,-70
2022-10-11T17:56:28.761Z,-71
2022-10-11T17:58:57.885Z,-71
2022-10-11T18:01:27.306Z,-72
2022-10-11T18:03:56.936Z,-72
2022-10-11T18:06:25.036Z,-71
2022-10-11T18:08:51.583Z,-72
2022-10-11T18:11:19.771Z,-72
2022-10-11T18:13:51.079Z,-72
2022-10-11T18:16:19.536Z,-73
2022-10-11T18:18:46.533Z,-72
2022-10-11T18:21:13.380Z,-74
2022-10-11T18:23:40.534Z,-74
2022-10-11T18:26:12.297Z,-73
2022-10-11T18:28:40.437Z,-73
2022-10-11T18:31:12.806Z,-72
2022-10-11T18:33:39.592Z,-71
2022-10-11T18:36:07.656Z,-72
2022-10-11T18:38:35.027Z,-72
2022-10-11T18:41:06.676Z,-71
2022-10-11T18:43:34.100Z,-69
2022-10-11T18:46:09.620Z,-68
2022-10-11T18:48:36.327Z,-70
2022-10-11T18:51:08.226Z,-71
2022-10-11T18:53:35.948Z,-71
2022-10-11T18:56:04.786Z,-69
2022-10-11T18:58:33.383Z,-71
2022-10-11T19:01:11.028Z,-69
2022-10-11T19:03:38.458Z,-71
2022-10-11T19:06:07.751Z,-67
2022-10-11T19:08:34.826Z,-71
2022-10-11T19:11:06.416Z,-70
2022-10-11T19:13:33.003Z,-71
2022-10-11T19:16:14.185Z,-68
2022-10-11T19:18:44.293Z,-69
2022-10-11T19:21:12.846Z,-71
2022-10-11T19:23:41.479Z,-71
2022-10-11T19:26:16.490Z,-70
2022-10-11T19:28:43.864Z,-71
2022-10-11T19:31:13.040Z,-70
2022-10-11T19:33:39.696Z,-68
2022-10-11T19:36:06.776Z,-69
2022-10-11T19:38:35.133Z,-70
2022-10-11T19:41:02.707Z,-67
2022-10-11T19:43:29.099Z,-70
2022-10-11T19:46:02.843Z,-70
2022-10-11T19:48:29.999Z,-71
2022-10-11T19:51:08.445Z,-70
2022-10-11T19:53:35.736Z,-71
2022-10-11T19:56:04.122Z,-68
2022-10-11T19:58:30.530Z,-70
2022-10-11T20:01:02.736Z,-67
2022-10-11T20:03:29.172Z,-70
2022-10-11T20:05:58.302Z,-70
2022-10-11T20:08:24.751Z,-69
2022-10-11T20:10:53.624Z,-70
2022-10-11T20:13:20.080Z,-71
2022-10-11T20:15:46.434Z,-67
2022-10-11T20:18:12.721Z,-71
2022-10-11T20:20:39.080Z,-71
2022-10-11T20:23:05.397Z,-71
2022-10-11T20:25:31.746Z,-67
2022-10-11T20:27:58.032Z,-67
2022-10-11T20:30:24.398Z,-68
2022-10-11T20:32:50.674Z,-67
2022-10-11T20:35:16.957Z,-67
2022-10-11T20:37:43.336Z,-68
2022-10-11T20:40:10.477Z,-67
2022-10-11T20:42:37.144Z,-68
2022-10-11T20:45:03.773Z,-68
2022-10-11T20:47:30.078Z,-68
2022-10-11T20:49:56.388Z,-67
2022-10-11T20:52:22.649Z,-67
2022-10-11T20:54:49.028Z,-67
2022-10-11T20:57:15.311Z,-68
2022-10-11T20:59:41.770Z,-68
2022-10-11T21:02:10.157Z,-67
2022-10-11T21:04:36.513Z,-67
2022-10-11T21:07:02.816Z,-67
2022-10-11T21:09:29.149Z,-68
2022-10-11T21:11:55.480Z,-67
2022-10-11T21:14:21.922Z,-67
2022-10-11T21:16:48.233Z,-67
2022-10-11T21:19:15.734Z,-67
2022-10-11T21:21:42.956Z,-67
2022-10-11T21:24:09.543Z,-67
2022-10-11T21:26:35.849Z,-67
2022-10-11T21:29:03.935Z,-68
2022-10-11T21:31:34.132Z,-67
2022-10-11T21:34:01.346Z,-68
2022-10-11T21:36:27.809Z,-68
2022-10-11T21:38:54.348Z,-68
2022-10-11T21:41:22.892Z,-67
2022-10-11T21:43:49.410Z,-67
2022-10-11T21:46:53.967Z,-67
2022-10-11T21:49:16.527Z,-67
2022-10-11T21:51:42.905Z,-68
2022-10-11T21:54:09.473Z,-67
2022-10-11T21:56:35.890Z,-67
2022-10-11T21:59:03.048Z,-68
2022-10-11T22:01:30.712Z,-67
2022-10-11T22:03:57.226Z,-67
2022-10-11T22:06:23.758Z,-67
2022-10-11T22:08:50.425Z,-67
2022-10-11T22:11:17.770Z,-67
2022-10-11T22:13:44.149Z,-67
2022-10-11T22:16:13.168Z,-67
2022-10-11T22:18:41.193Z,-67
2022-10-11T22:21:13.626Z,-67
2022-10-11T22:23:44.577Z,-67
2022-10-11T22:26:14.574Z,-67
2022-10-11T22:28:41.655Z,-67
2022-10-11T22:31:09.876Z,-67
2022-10-11T22:33:37.397Z,-66
2022-10-11T22:36:08.640Z,-66
2022-10-11T22:38:36.290Z,-66
2022-10-11T22:41:02.750Z,-66
2022-10-11T22:43:29.137Z,-66
2022-10-11T22:45:55.429Z,-67
2022-10-11T22:48:21.792Z,-66
2022-10-11T22:50:48.108Z,-66
2022-10-11T22:53:15.631Z,-66
2022-10-11T22:55:42.205Z,-66
2022-10-11T22:58:08.892Z,-66
2022-10-11T23:00:35.794Z,-66
2022-10-11T23:03:02.148Z,-66
2022-10-11T23:05:28.475Z,-66
2022-10-11T23:07:54.772Z,-67
2022-10-11T23:10:21.104Z,-67
2022-10-11T23:12:47.428Z,-66
2022-10-11T23:15:13.869Z,-66
2022-10-11T23:17:40.168Z,-66
2022-10-11T23:20:07.195Z,-66
2022-10-11T23:22:33.514Z,-66
2022-10-11T23:24:59.841Z,-66
2022-10-11T23:27:26.200Z,-66
2022-10-11T23:29:52.479Z,-66
2022-10-11T23:32:18.797Z,-66
2022-10-11T23:34:45.615Z,-67
2022-10-11T23:37:11.914Z,-66
2022-10-11T23:39:38.236Z,-66
2022-10-11T23:42:04.621Z,-67
2022-10-11T23:44:30.913Z,-66
2022-10-11T23:46:57.263Z,-66
2022-10-11T23:49:23.630Z,-66
2022-10-11T23:51:49.942Z,-66
2022-10-11T23:54:16.257Z,-66
2022-10-11T23:56:42.532Z,-66
2022-10-11T23:59:08.900Z,-66
